Time;durP1;ratioP1;P1;durP2;ratioP2;P2;SDS_P1;SDS_P2;PMS_P1;PMS_P2;Temp;Humidity;BMP_temperature;BMP_pressure;BME280_temperature;BME280_humidity;BME280_pressure;Samples;Min_cycle;Max_cycle;Signal;HPM_P1;HPM_P2
2022/03/18 00:04:24;;;;;;;5.45;2.10;;;;;;;5.62;100.00;100252.91;10455931;28;20128;-55
2022/03/18 00:09:27;;;;;;;6.30;1.98;;;;;;;5.62;100.00;100261.81;10437674;28;20048;-55
2022/03/18 00:14:30;;;;;;;5.43;1.95;;;;;;;5.60;100.00;100253.00;10424002;28;20051;-58
2022/03/18 00:19:34;;;;;;;4.10;1.73;;;;;;;5.57;100.00;100260.34;10455016;28;20120;-58
2022/03/18 00:24:37;;;;;;;9.60;2.22;;;;;;;5.52;100.00;100272.16;10455322;28;20120;-57
2022/03/18 00:29:42;;;;;;;9.27;2.20;;;;;;;5.57;100.00;100273.72;10455555;28;20123;-58
2022/03/18 00:34:46;;;;;;;6.70;1.90;;;;;;;5.57;100.00;100276.38;10407558;28;20140;-54
2022/03/18 00:39:49;;;;;;;6.75;2.03;;;;;;;5.53;100.00;100279.22;10454690;28;20041;-57
2022/03/18 00:44:52;;;;;;;7.20;2.10;;;;;;;5.55;100.00;100282.69;10422619;28;20067;-55
2022/03/18 00:55:17;;;;;;;8.40;2.30;;;;;;;5.59;100.00;100293.19;10454265;28;20049;-54
2022/03/18 01:00:20;;;;;;;7.97;2.15;;;;;;;5.52;100.00;100285.50;10454657;28;20039;-56
2022/03/18 01:05:25;;;;;;;7.93;2.20;;;;;;;5.53;100.00;100289.91;10453228;28;20459;-56
2022/03/18 01:10:28;;;;;;;7.00;2.03;;;;;;;5.55;100.00;100293.38;10453322;28;20043;-55
2022/03/18 01:15:31;;;;;;;11.55;2.20;;;;;;;5.54;100.00;100304.13;10420734;28;20053;-56
2022/03/18 01:20:36;;;;;;;10.55;2.20;;;;;;;5.51;100.00;100286.47;10452541;28;20048;-58
2022/03/18 01:25:40;;;;;;;8.95;2.20;;;;;;;5.46;100.00;100296.56;10452401;28;20131;-58
2022/03/18 01:30:43;;;;;;;9.85;2.55;;;;;;;5.45;100.00;100302.84;10452499;28;20416;-56
2022/03/18 01:35:48;;;;;;;11.13;2.90;;;;;;;5.45;100.00;100301.97;10422582;28;20132;-56
2022/03/18 01:40:53;;;;;;;6.25;2.00;;;;;;;5.35;100.00;100310.47;10422614;28;20112;-55
2022/03/18 01:45:56;;;;;;;7.47;2.35;;;;;;;5.36;100.00;100311.31;10423243;28;20057;-56
2022/03/18 01:51:01;;;;;;;10.48;2.30;;;;;;;5.30;100.00;100314.34;10452002;28;20587;-58
2022/03/18 01:56:05;;;;;;;6.35;2.17;;;;;;;5.29;100.00;100320.63;10438279;28;20041;-57
2022/03/18 02:01:08;;;;;;;6.05;1.95;;;;;;;5.30;100.00;100325.88;10410480;28;20126;-54
2022/03/18 02:06:13;;;;;;;8.02;2.28;;;;;;;5.33;100.00;100332.91;10413360;28;20128;-56
2022/03/18 02:11:16;;;;;;;8.45;2.30;;;;;;;5.30;100.00;100333.91;10419865;28;20111;-57
2022/03/18 02:16:19;;;;;;;11.10;2.30;;;;;;;5.30;100.00;100330.38;10425277;28;20053;-55
2022/03/18 02:21:28;;;;;;;9.20;2.30;;;;;;;5.24;100.00;100337.75;10452635;28;20041;-59
2022/03/18 02:26:33;;;;;;;6.80;2.15;;;;;;;5.21;100.00;100340.59;10455019;28;20091;-54
2022/03/18 02:31:36;;;;;;;6.75;2.20;;;;;;;5.13;100.00;100344.63;10448728;28;20088;-55
2022/03/18 02:36:39;;;;;;;7.70;2.25;;;;;;;5.15;100.00;100358.75;10428730;28;20080;-53
2022/03/18 02:41:43;;;;;;;7.57;2.25;;;;;;;5.14;100.00;100363.22;10418716;28;20466;-53
2022/03/18 02:46:46;;;;;;;8.75;2.60;;;;;;;5.12;100.00;100358.91;10432094;28;20132;-53
2022/03/18 02:51:49;;;;;;;7.72;2.15;;;;;;;5.09;100.00;100360.78;10460313;28;20143;-54
2022/03/18 02:56:54;;;;;;;7.82;2.30;;;;;;;5.13;100.00;100364.16;10445838;28;20125;-56
2022/03/18 03:01:58;;;;;;;10.57;2.60;;;;;;;5.03;100.00;100370.94;10401645;28;20077;-58
2022/03/18 03:12:23;;;;;;;12.05;3.20;;;;;;;4.94;100.00;100378.47;10460699;28;20072;-54
2022/03/18 03:17:26;;;;;;;9.18;2.97;;;;;;;5.02;100.00;100385.22;10442835;28;20060;-54
2022/03/18 03:22:30;;;;;;;8.98;2.97;;;;;;;5.00;100.00;100398.66;10461402;28;20116;-53
2022/03/18 03:27:34;;;;;;;10.85;3.00;;;;;;;4.94;100.00;100405.19;10459349;28;20517;-56
2022/03/18 03:32:38;;;;;;;7.68;2.60;;;;;;;4.98;100.00;100413.06;10445578;28;20033;-57
2022/03/18 03:37:42;;;;;;;8.63;2.90;;;;;;;4.78;100.00;100418.44;10441918;28;20075;-54
2022/03/18 03:42:46;;;;;;;8.52;3.20;;;;;;;4.75;100.00;100415.06;10418251;28;20106;-53
2022/03/18 03:47:50;;;;;;;8.18;3.10;;;;;;;4.77;100.00;100430.06;10444924;28;20195;-56
2022/03/18 03:52:53;;;;;;;9.57;3.40;;;;;;;4.67;100.00;100427.88;10458322;28;20465;-54
2022/03/18 03:57:57;;;;;;;8.23;3.13;;;;;;;4.52;100.00;100432.16;10434404;28;20125;-56
2022/03/18 04:03:00;;;;;;;11.23;3.00;;;;;;;4.59;100.00;100439.81;10416763;28;20041;-54
2022/03/18 04:08:04;;;;;;;11.05;2.90;;;;;;;4.50;100.00;100448.25;10423577;28;20049;-59
2022/03/18 04:13:08;;;;;;;9.43;3.22;;;;;;;4.48;100.00;100466.16;10417269;28;20065;-57
2022/03/18 04:18:11;;;;;;;7.07;2.90;;;;;;;4.48;100.00;100463.47;10446997;28;20068;-53
2022/03/18 04:23:14;;;;;;;7.13;2.70;;;;;;;4.42;100.00;100472.66;10439250;28;20132;-56
2022/03/18 04:28:18;;;;;;;8.20;2.90;;;;;;;4.44;100.00;100484.13;10438787;28;20412;-57
2022/03/18 04:33:21;;;;;;;6.25;2.67;;;;;;;4.47;100.00;100477.75;10436042;28;20065;-54
2022/03/18 04:38:27;;;;;;;10.38;3.20;;;;;;;4.42;100.00;100486.00;10439676;28;20088;-56
2022/03/18 04:43:32;;;;;;;7.32;2.60;;;;;;;4.42;100.00;100504.69;10408637;28;20073;-57
2022/03/18 04:48:35;;;;;;;8.75;3.00;;;;;;;4.44;100.00;100501.91;10434216;28;20092;-53
2022/03/18 04:53:40;;;;;;;10.77;2.78;;;;;;;4.28;100.00;100510.66;10396726;28;20045;-53
2022/03/18 04:58:45;;;;;;;10.65;3.00;;;;;;;4.26;100.00;100514.31;10382822;28;20093;-54
2022/03/18 05:03:48;;;;;;;10.13;2.85;;;;;;;4.16;100.00;100511.19;10372579;28;20152;-55
2022/03/18 05:08:51;;;;;;;8.70;2.78;;;;;;;4.05;100.00;100522.34;10376732;28;20133;-57
2022/03/18 05:13:55;;;;;;;11.10;3.00;;;;;;;3.98;100.00;100529.75;10386120;28;20128;-55
2022/03/18 05:18:58;;;;;;;9.50;2.90;;;;;;;3.96;100.00;100544.09;10407932;28;20073;-57
2022/03/18 05:24:02;;;;;;;9.23;3.03;;;;;;;3.97;100.00;100554.66;10394378;28;20072;-57
2022/03/18 05:29:07;;;;;;;8.98;2.88;;;;;;;3.93;100.00;100553.09;10412661;28;20049;-55
2022/03/18 05:34:10;;;;;;;11.77;3.00;;;;;;;3.90;100.00;100561.22;10383730;28;20643;-54
2022/03/18 05:39:14;;;;;;;11.30;3.13;;;;;;;3.93;100.00;100565.53;10383062;28;20049;-58
2022/03/18 05:44:19;;;;;;;10.52;2.85;;;;;;;3.76;100.00;100571.59;10398464;28;20139;-59
2022/03/18 05:49:22;;;;;;;10.07;2.70;;;;;;;3.79;100.00;100584.81;10406883;28;20088;-57
2022/03/18 05:54:25;;;;;;;11.18;2.60;;;;;;;3.81;100.00;100586.47;10440816;28;20124;-56
2022/03/18 05:59:33;;;;;;;9.30;2.80;;;;;;;3.90;100.00;100587.88;10438214;28;20057;-57
2022/03/18 06:04:37;;;;;;;10.00;2.95;;;;;;;3.96;100.00;100598.28;10435145;28;20152;-54
2022/03/18 06:15:03;;;;;;;9.55;2.75;;;;;;;4.08;100.00;100606.69;10438287;28;20145;-56
2022/03/18 06:20:07;;;;;;;13.20;3.00;;;;;;;4.15;100.00;100598.34;10440502;28;20072;-58
2022/03/18 06:25:12;;;;;;;11.55;2.63;;;;;;;4.16;100.00;100612.59;10445177;28;20426;-59
2022/03/18 06:30:16;;;;;;;9.45;2.40;;;;;;;4.07;100.00;100626.28;10433133;28;20135;-57
2022/03/18 06:35:19;;;;;;;9.88;2.63;;;;;;;3.95;100.00;100639.22;10446682;28;20108;-56
2022/03/18 06:40:23;;;;;;;13.73;2.67;;;;;;;3.98;100.00;100648.91;10433158;28;20091;-58
2022/03/18 06:45:27;;;;;;;9.13;2.33;;;;;;;3.97;100.00;100658.69;10441521;28;20048;-57
2022/03/18 06:50:30;;;;;;;11.88;2.40;;;;;;;3.95;100.00;100654.38;10452259;28;20417;-60
2022/03/18 06:55:35;;;;;;;13.05;2.97;;;;;;;3.99;100.00;100664.00;10455191;28;20113;-59
2022/03/18 07:00:45;;;;;;;10.95;2.55;;;;;;;3.96;100.00;100672.97;10451534;28;20466;-59
2022/03/18 07:05:48;;;;;;;10.63;2.80;;;;;;;3.87;100.00;100677.81;10453308;28;21175;-58
2022/03/18 07:10:52;;;;;;;13.73;3.00;;;;;;;3.95;100.00;100679.22;10465691;28;20136;-57
2022/03/18 07:17:54;;;;;;;9.43;2.60;;;;;;;3.88;100.00;100688.41;10444247;28;20049;-60
2022/03/18 07:21:19;;;;;;;9.70;2.50;;;;;;;3.89;100.00;100692.81;10445901;28;20099;-58
2022/03/18 07:26:22;;;;;;;12.75;2.97;;;;;;;3.88;100.00;100707.09;10453715;28;20112;-60
2022/03/18 07:31:27;;;;;;;12.52;3.05;;;;;;;3.91;100.00;100706.09;10452912;28;20041;-59
2022/03/18 07:36:30;;;;;;;12.00;3.10;;;;;;;3.90;100.00;100713.22;10447770;28;20139;-59
2022/03/18 07:41:34;;;;;;;9.07;3.35;;;;;;;3.83;100.00;100714.41;10448837;28;20633;-64
2022/03/18 07:46:39;;;;;;;11.65;3.75;;;;;;;3.93;100.00;100721.13;10450043;28;20499;-57
2022/03/18 07:51:42;;;;;;;10.98;3.42;;;;;;;4.05;100.00;100729.56;10437841;28;20049;-57
2022/03/18 07:56:45;;;;;;;9.13;3.05;;;;;;;4.13;100.00;100728.28;10454549;28;20498;-59
2022/03/18 08:01:50;;;;;;;11.63;3.03;;;;;;;4.17;100.00;100739.72;10454971;28;20445;-56
2022/03/18 08:06:53;;;;;;;10.82;3.30;;;;;;;4.18;100.00;100741.44;10455809;28;20045;-56
2022/03/18 08:11:58;;;;;;;9.00;3.15;;;;;;;4.12;100.00;100744.38;10436203;28;20136;-57
2022/03/18 08:17:02;;;;;;;11.45;3.30;;;;;;;4.25;100.00;100745.59;10461074;28;20504;-57
2022/03/18 08:22:07;;;;;;;10.75;3.30;;;;;;;4.27;100.00;100738.41;10425834;22;20058;-57
2022/03/18 08:27:10;;;;;;;10.38;3.13;;;;;;;4.39;100.00;100758.38;10369415;28;20052;-53
2022/03/18 08:32:16;;;;;;;11.65;3.78;;;;;;;4.45;100.00;100763.47;10378007;28;20140;-55
2022/03/18 08:37:56;;;;;;;14.35;4.20;;;;;;;4.32;100.00;100760.41;10340861;28;20045;-57
2022/03/18 08:42:43;;;;;;;14.73;3.70;;;;;;;4.44;100.00;100775.06;10326392;28;20042;-61
2022/03/18 08:47:47;;;;;;;11.20;3.20;;;;;;;4.52;100.00;100768.53;10358153;28;20160;-57
2022/03/18 08:52:53;;;;;;;12.45;3.30;;;;;;;4.56;100.00;100767.50;10370610;28;20034;-57
2022/03/18 08:57:56;;;;;;;14.32;3.03;;;;;;;4.61;100.00;100769.03;10357273;28;20160;-57
2022/03/18 09:03:01;;;;;;;10.63;2.70;;;;;;;4.68;100.00;100774.97;10366848;28;20046;-57
2022/03/18 09:08:04;;;;;;;11.68;2.80;;;;;;;4.83;100.00;100780.56;10386781;28;20094;-57
2022/03/18 09:13:08;;;;;;;11.15;3.05;;;;;;;4.89;100.00;100786.53;10370426;28;20115;-57
2022/03/18 09:18:12;;;;;;;10.55;2.90;;;;;;;4.96;100.00;100794.28;10362677;28;20561;-55
2022/03/18 09:23:16;;;;;;;10.50;2.80;;;;;;;5.03;100.00;100806.44;10366981;28;20136;-54
2022/03/18 09:28:19;;;;;;;8.88;2.97;;;;;;;5.14;100.00;100806.81;10396210;28;20103;-53
2022/03/18 09:33:27;;;;;;;13.88;3.10;;;;;;;5.19;100.00;100809.28;10371949;28;20054;-54
2022/03/18 09:38:30;;;;;;;11.25;3.20;;;;;;;5.31;100.00;100813.25;10390301;28;20050;-55
2022/03/18 09:43:34;;;;;;;9.80;3.00;;;;;;;5.55;100.00;100804.13;10369992;28;20046;-57
2022/03/18 09:48:39;;;;;;;9.82;3.10;;;;;;;5.49;100.00;100817.75;10381979;28;20042;-56
2022/03/18 09:53:43;;;;;;;10.10;3.10;;;;;;;5.71;100.00;100817.66;10369764;28;20073;-52
2022/03/18 09:58:46;;;;;;;9.60;3.05;;;;;;;5.80;100.00;100824.38;10375298;28;20590;-56
2022/03/18 10:03:50;;;;;;;13.18;3.13;;;;;;;5.91;100.00;100828.38;10369409;28;20534;-53
2022/03/18 10:08:54;;;;;;;11.65;3.08;;;;;;;6.06;100.00;100821.44;10402521;28;20041;-57
2022/03/18 10:14:00;;;;;;;11.13;3.03;;;;;;;6.27;100.00;100835.63;10368581;28;20038;-57
2022/03/18 10:19:07;;;;;;;8.02;2.75;;;;;;;6.42;100.00;100839.34;10403833;28;20088;-56
2022/03/18 10:24:11;;;;;;;9.85;3.10;;;;;;;6.58;100.00;100843.03;10408810;28;20140;-57
2022/03/18 10:29:14;;;;;;;11.73;2.97;;;;;;;6.65;100.00;100848.06;10409445;28;20419;-54
2022/03/18 10:39:41;;;;;;;10.48;3.10;;;;;;;6.90;100.00;100842.34;10402900;28;20123;-55
2022/03/18 10:44:49;;;;;;;11.40;2.60;;;;;;;6.95;100.00;100840.28;10367939;28;20046;-55
2022/03/18 10:49:54;;;;;;;7.72;2.90;;;;;;;7.02;100.00;100847.06;10388449;28;20076;-55
2022/03/18 10:55:16;;;;;;;8.18;2.55;;;;;;;7.02;100.00;100860.47;10450144;28;20041;-52
2022/03/18 11:00:19;;;;;;;9.38;2.53;;;;;;;7.13;100.00;100859.06;10394187;28;20046;-54
2022/03/18 11:05:24;;;;;;;8.80;2.72;;;;;;;7.14;100.00;100860.78;10410757;28;20045;-56
2022/03/18 11:15:49;;;;;;;;;;;;;;;7.02;100.00;100849.75;10422296;28;20132;-56
2022/03/18 11:20:57;;;;;;;10.48;3.45;;;;;;;7.25;100.00;100855.75;10457329;28;20011;-57
2022/03/18 11:26:01;;;;;;;7.88;3.47;;;;;;;7.58;100.00;100840.63;10457108;28;20128;-57
2022/03/18 11:31:06;;;;;;;8.07;3.60;;;;;;;7.63;100.00;100839.44;10454756;28;20124;-58
2022/03/18 11:36:15;;;;;;;9.90;3.50;;;;;;;7.71;100.00;100839.88;10426552;28;20045;-56
2022/03/18 11:41:19;;;;;;;10.98;4.18;;;;;;;7.74;100.00;100837.97;10456303;28;20118;-58
2022/03/18 11:46:26;;;;;;;10.00;4.10;;;;;;;8.00;100.00;100833.84;10446771;28;20103;-56
2022/03/18 11:51:32;;;;;;;9.20;4.25;;;;;;;8.26;100.00;100832.41;10438270;28;20142;-59
2022/03/18 11:56:44;;;;;;;8.68;4.07;;;;;;;8.53;100.00;100831.81;10431005;28;20468;-58
2022/03/18 12:01:51;;;;;;;;;;;;;;;8.44;100.00;100830.50;10415274;28;20054;-56
2022/03/18 12:07:16;;;;;;;8.48;4.22;;;;;;;8.54;100.00;100830.84;10414512;28;19999;-57
2022/03/18 12:12:21;;;;;;;8.02;4.22;;;;;;;8.24;100.00;100834.31;10456000;28;20584;-53
2022/03/18 12:17:25;;;;;;;7.88;4.60;;;;;;;8.29;100.00;100831.38;10444897;28;20045;-54
2022/03/18 12:22:31;;;;;;;9.15;4.53;;;;;;;8.36;100.00;100831.91;10454212;28;20049;-57
2022/03/18 12:27:36;;;;;;;8.75;5.20;;;;;;;8.39;100.00;100826.34;10455026;28;20102;-54
2022/03/18 12:32:41;;;;;;;9.18;5.30;;;;;;;8.73;100.00;100824.44;10439021;28;20124;-52
2022/03/18 12:37:46;;;;;;;7.85;4.88;;;;;;;8.73;100.00;100835.19;10437507;28;20120;-53
2022/03/18 12:42:50;;;;;;;9.13;4.90;;;;;;;8.71;100.00;100820.97;10454286;28;20071;-53
2022/03/18 12:47:55;;;;;;;8.02;4.40;;;;;;;9.02;100.00;100813.75;10453778;28;20464;-53
2022/03/18 12:53:01;;;;;;;7.32;4.60;;;;;;;9.15;100.00;100808.50;10453990;28;20065;-54
2022/03/18 12:58:04;;;;;;;6.72;4.63;;;;;;;9.33;100.00;100807.38;10434275;28;20045;-52
2022/03/18 13:03:08;;;;;;;8.23;4.38;;;;;;;9.38;100.00;100809.78;10411106;28;20089;-56
2022/03/18 13:08:16;;;;;;;7.15;4.40;;;;;;;9.47;100.00;100793.06;10439741;28;20044;-55
2022/03/18 13:13:20;;;;;;;6.13;4.32;;;;;;;9.45;100.00;100786.94;10453431;28;20048;-53
2022/03/18 13:18:23;;;;;;;6.20;4.35;;;;;;;9.47;100.00;100789.50;10452941;28;20080;-54
2022/03/18 13:23:28;;;;;;;8.27;4.60;;;;;;;9.53;100.00;100792.69;10451785;28;20080;-53
2022/03/18 13:28:31;;;;;;;6.70;4.60;;;;;;;10.02;100.00;100785.13;10433568;28;20136;-54
2022/03/18 13:33:41;;;;;;;6.25;4.68;;;;;;;10.48;100.00;100783.97;10409842;28;20040;-59
2022/03/18 13:38:49;;;;;;;7.13;4.43;;;;;;;10.52;100.00;100793.56;10443036;28;20080;-58
2022/03/18 13:43:57;;;;;;;6.35;4.40;;;;;;;10.11;100.00;100779.16;10451719;28;20057;-60
2022/03/18 13:49:11;;;;;;;5.97;4.45;;;;;;;10.39;100.00;100784.56;10452255;28;20132;-59
2022/03/18 13:54:18;;;;;;;5.32;4.50;;;;;;;10.09;100.00;100794.53;10451276;28;20043;-61
2022/03/18 13:59:23;;;;;;;6.10;4.40;;;;;;;9.75;100.00;100796.72;10421497;28;20057;-58
2022/03/18 14:04:26;;;;;;;7.00;3.70;;;;;;;9.92;100.00;100800.16;10409649;28;20040;-58
2022/03/18 14:09:31;;;;;;;4.75;3.47;;;;;;;9.61;100.00;100794.91;10448458;28;20076;-59
2022/03/18 14:14:36;;;;;;;7.03;3.40;;;;;;;9.36;100.00;100792.84;10450888;28;20072;-58
2022/03/18 14:19:53;;;;;;;6.97;3.83;;;;;;;9.29;100.00;100802.28;10450556;28;20041;-57
2022/03/18 14:24:59;;;;;;;6.18;3.40;;;;;;;9.85;100.00;100787.06;10485926;22;20527;-82
2022/03/18 14:30:07;;;;;;;8.02;3.83;;;;;;;9.65;100.00;100800.94;10485145;28;20083;-81
2022/03/18 14:35:11;;;;;;;6.80;3.88;;;;;;;9.36;100.00;100796.44;10476539;28;20527;-81
2022/03/18 14:40:17;;;;;;;5.95;4.20;;;;;;;9.29;100.00;100800.44;10505357;28;20033;-81
2022/03/18 14:45:20;;;;;;;5.40;4.22;;;;;;;9.33;100.00;100801.13;10470053;22;20520;-57
2022/03/18 14:50:23;;;;;;;6.25;3.55;;;;;;;9.16;100.00;100811.09;10426632;28;20042;-56
2022/03/18 15:00:48;;;;;;;;;;;;;;;9.21;100.00;100809.00;10419365;28;20133;-56
2022/03/18 15:05:51;;;;;;;6.72;2.75;;;;;;;9.30;100.00;100814.78;10427393;28;19920;-57
2022/03/18 15:10:55;;;;;;;6.40;2.60;;;;;;;9.28;100.00;100822.94;10459330;28;20037;-57
2022/03/18 15:15:58;;;;;;;6.90;2.40;;;;;;;9.36;100.00;100814.38;10448208;28;20041;-57
2022/03/18 15:21:01;;;;;;;5.57;2.22;;;;;;;9.48;100.00;100807.38;10459329;28;20123;-54
2022/03/18 15:26:09;;;;;;;7.75;2.30;;;;;;;9.90;100.00;100811.03;10452689;28;20034;-56
2022/03/18 15:31:13;;;;;;;4.55;2.10;;;;;;;10.20;100.00;100807.31;10417558;28;20056;-59
2022/03/18 15:36:16;;;;;;;5.80;1.98;;;;;;;10.14;100.00;100808.59;10417022;28;20091;-55
2022/03/18 15:41:20;;;;;;;6.53;2.40;;;;;;;10.35;100.00;100813.53;10399343;28;20505;-56
2022/03/18 15:46:23;;;;;;;7.95;2.13;;;;;;;10.28;100.00;100812.22;10419620;28;20482;-58
2022/03/18 15:51:27;;;;;;;4.15;1.80;;;;;;;10.37;100.00;100803.53;10439658;28;20111;-56
2022/03/18 15:56:33;;;;;;;5.43;2.10;;;;;;;10.77;100.00;100810.81;10429470;28;20048;-59
2022/03/18 16:01:37;;;;;;;5.38;2.15;;;;;;;10.99;100.00;100812.91;10431978;28;20053;-56
2022/03/18 16:06:40;;;;;;;6.72;2.05;;;;;;;11.21;100.00;100814.13;10457268;28;20456;-57
2022/03/18 16:11:46;;;;;;;6.05;2.33;;;;;;;11.39;100.00;100812.00;10457245;28;20084;-55
2022/03/18 16:16:49;;;;;;;5.13;2.00;;;;;;;11.51;100.00;100827.31;10437941;28;20045;-56
2022/03/18 16:21:52;;;;;;;7.53;2.38;;;;;;;11.51;99.92;100831.84;10458184;28;20152;-58
2022/03/18 16:27:01;;;;;;;3.58;1.60;;;;;;;11.49;92.20;100822.97;10457978;28;20061;-58
2022/03/18 16:32:05;;;;;;;8.05;2.22;;;;;;;11.32;85.62;100816.06;10447128;28;20041;-56
2022/03/18 16:37:08;;;;;;;4.90;1.75;;;;;;;11.35;86.65;100816.72;10432206;28;20116;-57
2022/03/18 16:49:30;;;;;;;3.85;1.63;;;;;;;11.00;83.97;100835.34;10458932;28;20052;-57
2022/03/18 16:54:38;;;;;;;4.85;1.63;;;;;;;10.93;82.41;100837.59;10458361;28;20048;-59
2022/03/18 16:59:41;;;;;;;6.55;1.98;;;;;;;10.72;83.23;100843.47;10432088;28;20087;-58
2022/03/18 17:04:46;;;;;;;7.07;1.80;;;;;;;10.33;88.87;100839.72;10418248;28;20049;-58
2022/03/18 17:09:49;;;;;;;5.90;1.80;;;;;;;9.97;93.20;100854.59;10437654;28;20580;-60
2022/03/18 17:14:52;;;;;;;5.90;2.05;;;;;;;9.45;97.10;100858.69;10439879;28;20112;-59
2022/03/18 17:19:57;;;;;;;5.65;1.83;;;;;;;9.12;100.00;100860.63;10373126;28;20122;-59
2022/03/18 17:25:00;;;;;;;5.82;1.98;;;;;;;8.84;100.00;100859.59;10395943;28;20426;-59
2022/03/18 17:30:04;;;;;;;6.90;1.70;;;;;;;8.66;100.00;100860.66;10410449;28;20116;-59
2022/03/18 17:35:09;;;;;;;6.00;2.00;;;;;;;8.49;100.00;100873.25;10393985;28;20049;-59
2022/03/18 17:40:14;;;;;;;3.95;1.58;;;;;;;8.24;98.10;100895.22;10431494;28;20071;-60
2022/03/18 17:45:17;;;;;;;7.00;1.63;;;;;;;8.10;98.40;100890.63;10415682;28;20083;-59
2022/03/18 17:50:23;;;;;;;5.75;1.80;;;;;;;7.97;100.00;100888.59;10424893;28;20057;-61
2022/03/18 17:55:28;;;;;;;5.25;1.58;;;;;;;7.84;99.57;100896.47;10398639;28;20087;-61
2022/03/18 18:00:31;;;;;;;4.72;1.80;;;;;;;7.66;94.18;100909.03;10410756;28;20553;-57
2022/03/18 18:05:37;;;;;;;3.17;1.40;;;;;;;7.62;91.03;100915.50;10413621;28;20041;-61
2022/03/18 18:10:41;;;;;;;4.05;1.38;;;;;;;7.57;90.27;100914.91;10403561;28;20575;-59
2022/03/18 18:15:44;;;;;;;5.13;1.60;;;;;;;7.52;95.03;100917.84;10400852;28;20060;-58
2022/03/18 18:26:15;;;;;;;3.55;1.52;;;;;;;7.33;93.30;100922.38;10432613;28;20076;-59
2022/03/18 18:31:19;;;;;;;5.32;1.67;;;;;;;7.22;92.96;100914.91;10456387;28;20111;-59
2022/03/18 18:36:24;;;;;;;5.85;1.90;;;;;;;7.09;96.93;100920.91;10404577;28;20048;-59
2022/03/18 18:41:27;;;;;;;4.53;1.55;;;;;;;7.00;100.00;100932.06;10421997;28;20116;-58
2022/03/18 18:46:30;;;;;;;7.10;1.80;;;;;;;6.91;100.00;100929.84;10424653;28;20092;-56
2022/03/18 18:51:36;;;;;;;5.00;1.60;;;;;;;6.83;100.00;100929.34;10419315;28;20041;-59
2022/03/18 18:56:39;;;;;;;4.93;1.67;;;;;;;6.76;100.00;100935.00;10432419;28;20386;-58
2022/03/18 19:01:43;;;;;;;4.25;1.83;;;;;;;6.70;100.00;100939.81;10463541;28;20544;-58
2022/03/18 19:06:48;;;;;;;2.90;1.80;;;;;;;6.58;100.00;100939.47;10417714;28;20393;-59
2022/03/18 19:11:51;;;;;;;4.63;2.30;;;;;;;6.48;100.00;100936.34;10386468;28;20080;-60
2022/03/18 19:16:57;;;;;;;6.13;2.50;;;;;;;6.44;100.00;100939.25;10416418;28;20068;-60
2022/03/18 19:22:04;;;;;;;5.75;2.70;;;;;;;6.39;100.00;100944.81;10462711;28;20561;-58
2022/03/18 19:27:07;;;;;;;4.90;2.47;;;;;;;6.35;100.00;100943.22;10448095;28;20104;-59
2022/03/18 19:32:29;;;;;;;5.45;2.40;;;;;;;6.28;100.00;100947.13;10419645;28;20085;-59
2022/03/18 19:37:35;;;;;;;4.65;2.28;;;;;;;6.21;100.00;100956.38;10440987;28;20048;-59
2022/03/18 19:42:38;;;;;;;4.63;2.70;;;;;;;6.19;100.00;100947.53;10459692;28;20100;-59
2022/03/18 19:47:42;;;;;;;6.03;2.97;;;;;;;6.14;100.00;100950.41;10459102;28;20120;-60
2022/03/18 19:52:51;;;;;;;6.38;3.10;;;;;;;6.11;100.00;100970.19;10458762;28;20041;-58
2022/03/18 20:03:14;;;;;;;6.75;2.85;;;;;;;6.01;100.00;100974.22;10418054;28;20124;-59
2022/03/18 20:08:19;;;;;;;4.82;2.38;;;;;;;5.98;100.00;100974.31;10443790;28;20045;-60
2022/03/18 20:13:23;;;;;;;5.45;2.35;;;;;;;5.92;100.00;100974.59;10432167;28;20565;-59
2022/03/18 20:18:29;;;;;;;4.35;2.50;;;;;;;5.80;100.00;100971.53;10423302;28;20453;-60
2022/03/18 20:23:33;;;;;;;6.40;2.90;;;;;;;5.57;100.00;100980.53;10432697;28;20053;-58
2022/03/18 20:28:36;;;;;;;5.95;2.60;;;;;;;5.43;100.00;100989.16;10420250;28;20412;-60
2022/03/18 20:33:40;;;;;;;7.07;2.70;;;;;;;5.36;100.00;100987.66;10415203;28;20476;-60
2022/03/18 20:38:44;;;;;;;5.78;2.70;;;;;;;5.42;100.00;100991.88;10414608;28;20120;-60
2022/03/18 20:43:47;;;;;;;5.80;2.63;;;;;;;5.44;100.00;100984.66;10413582;28;20099;-59
2022/03/18 20:48:50;;;;;;;5.65;2.40;;;;;;;5.45;100.00;100995.31;10398689;28;20054;-59
2022/03/18 20:53:55;;;;;;;4.93;2.30;;;;;;;5.39;100.00;100996.44;10418173;28;20045;-60
2022/03/18 20:58:58;;;;;;;5.18;2.83;;;;;;;5.28;100.00;100985.34;10421195;28;20071;-58
2022/03/18 21:04:01;;;;;;;6.68;2.90;;;;;;;5.07;100.00;100987.09;10419694;28;20041;-58
2022/03/18 21:09:07;;;;;;;6.95;2.80;;;;;;;4.87;100.00;100983.44;10419868;28;20123;-57
2022/03/18 21:14:13;;;;;;;6.07;2.60;;;;;;;4.75;100.00;100991.94;10418001;28;20099;-59
2022/03/18 21:19:18;;;;;;;6.93;2.90;;;;;;;4.63;100.00;100987.91;10418043;28;20069;-58
2022/03/18 21:24:23;;;;;;;10.05;3.00;;;;;;;4.44;100.00;100985.97;10420363;28;20172;-58
2022/03/18 21:34:46;;;;;;;7.70;3.20;;;;;;;4.01;100.00;100984.88;10419421;28;20057;-58
2022/03/18 21:39:51;;;;;;;7.47;2.80;;;;;;;4.09;100.00;100987.28;10400767;28;20140;-58
2022/03/18 21:44:55;;;;;;;6.32;3.38;;;;;;;3.98;100.00;100983.19;10394059;28;20492;-56
2022/03/18 21:49:58;;;;;;;5.40;3.33;;;;;;;3.90;100.00;100981.72;10410095;28;20053;-60
2022/03/18 21:55:04;;;;;;;6.32;3.30;;;;;;;3.80;100.00;100981.22;10415265;28;20072;-57
2022/03/18 22:00:10;;;;;;;6.63;3.47;;;;;;;3.67;100.00;100986.97;10389188;28;20141;-57
2022/03/18 22:05:13;;;;;;;7.07;2.42;;;;;;;3.55;100.00;100979.41;10394465;28;20397;-57
2022/03/18 22:10:19;;;;;;;6.35;2.40;;;;;;;3.52;100.00;100972.41;10412268;28;20038;-58
2022/03/18 22:15:22;;;;;;;4.55;2.28;;;;;;;3.47;100.00;100978.81;10392354;28;20076;-58
2022/03/18 22:20:25;;;;;;;6.60;2.28;;;;;;;3.35;100.00;100974.75;10414957;28;20051;-58
2022/03/18 22:25:31;;;;;;;4.03;2.30;;;;;;;3.19;100.00;100979.72;10411307;28;20120;-58
2022/03/18 22:30:34;;;;;;;7.72;2.30;;;;;;;3.17;100.00;100970.91;10409048;28;20053;-60
2022/03/18 22:35:38;;;;;;;4.40;1.90;;;;;;;3.17;100.00;100973.56;10410816;28;20041;-59
2022/03/18 22:40:42;;;;;;;5.70;2.13;;;;;;;3.28;100.00;100976.75;10407472;28;20041;-57
2022/03/18 22:45:45;;;;;;;4.88;2.17;;;;;;;3.43;100.00;100982.50;10411959;28;20060;-57
2022/03/18 22:50:48;;;;;;;5.07;1.88;;;;;;;3.61;100.00;100979.19;10404933;28;20052;-59
2022/03/18 22:55:53;;;;;;;3.95;1.63;;;;;;;3.61;100.00;100976.50;10396005;28;20056;-59
2022/03/18 23:00:56;;;;;;;5.45;2.08;;;;;;;3.57;100.00;100982.91;10412114;28;20132;-58
2022/03/18 23:06:00;;;;;;;5.13;2.72;;;;;;;3.49;100.00;100977.81;10420594;28;20118;-59
2022/03/18 23:16:28;;;;;;;5.75;3.05;;;;;;;3.13;100.00;100974.59;10414186;28;20093;-58
2022/03/18 23:21:32;;;;;;;7.40;3.20;;;;;;;3.03;100.00;100974.03;10404539;28;20421;-59
2022/03/18 23:26:37;;;;;;;6.28;3.08;;;;;;;2.94;100.00;100980.53;10414891;28;20517;-56
2022/03/18 23:31:41;;;;;;;7.60;2.90;;;;;;;2.86;100.00;100974.59;10417412;28;20042;-58
2022/03/18 23:36:46;;;;;;;6.22;2.80;;;;;;;2.81;100.00;100973.84;10422394;28;20079;-58
2022/03/18 23:41:50;;;;;;;6.72;2.88;;;;;;;2.72;100.00;100969.66;10422600;28;20472;-58
2022/03/18 23:46:53;;;;;;;6.93;2.97;;;;;;;2.63;100.00;100970.84;10427666;28;20124;-58
2022/03/18 23:51:56;;;;;;;7.07;3.00;;;;;;;2.59;100.00;100970.06;10420379;28;20442;-57
2022/03/18 23:57:00;;;;;;;6.88;2.90;;;;;;;2.56;100.00;100969.28;10421604;28;20454;-56
